KMFV

Details ICAO KMFV
Name Accomack County
Region United States
Timezone America/New_York (UTC-5.0)
Plans Departing 5
Arriving 4
Stats Elevation 47 ft / 14 m (AMSL)
Location 37.646850° -75.761019°
Runways 1
Magnetic Variation 11.301° W
Sunrise 2017-12-13 12:11:03 UTC / 2017-12-13 07:11:03 Local
Sunset 2017-12-13 21:46:28 UTC / 2017-12-13 16:46:28 Local
Advertisement - Login to hide

Runways

ID Width Length Bearing (true) Bearing (mag) Surface Threshold Offset Overrun Length
03 98 ft / 30 m 5,005 ft / 1,525 m 22.91° 34.21° Asphalt 0 ft / 0 m 1,001 ft / 305 m
21 98 ft / 30 m 5,005 ft / 1,525 m 202.92° 214.22° Asphalt 0 ft / 0 m 1,001 ft / 305 m

Approach Navaids

Runway Type Ident Frequency Range Bearing (true) Bearing (mag) Slope Elevation
03 Localiser IMFV 110.15 MHz 18 nm / 33 km 22.96° 34.26° - 47 ft / 14 m (AMSL)

Map

Weather


0- 5 10 15 20 25 30 35+ Temperature / ° C

Clouds and Precipitation
Forecast for 2017-12-13 12:00 UTC. Updated 9 minutes ago

Ground ~20,000 ft ~40,000 ft Winds

METAR

KMFV 130715Z AUTO 32017G24KT 10SM OVC049 M02/M12 A2975 RMK AO2 T10211117

TAF

Not found

Frequencies

Recorded 118.17 MHz AWOS 3
Approach 126.05 MHz NORFOLK APP/DEP
Unicom 122.80 MHz CTAF/UNICOM
Warning: Do not use this data for real-world aviation or navigation. No guarantee of current accuracy is given.